Time,TemperatureF,DewpointF,PressureIn,WindDirection,WindDirectionDegrees,WindSpeedMPH,WindSpeedGustMPH,Humidity,HourlyPrecipIn,Conditions,Clouds,dailyrainin,SoftwareType,DateUTC
2013-05-19 00:07:00,55.7,45.0,30.05,West,276,0.0,1.0,67,0.00,,,0.00,weatherlink.com 1.10,2013-05-19 07:07:00,
2013-05-19 00:22:00,55.9,45.0,30.04,ESE,123,0.0,4.0,66,0.00,,,0.00,weatherlink.com 1.10,2013-05-19 07:22:00,
2013-05-19 00:37:00,57.1,44.0,30.04,SE,141,1.0,4.0,63,0.00,,,0.00,weatherlink.com 1.10,2013-05-19 07:37:00,
2013-05-19 00:52:00,56.5,45.0,30.05,SE,127,1.0,3.0,65,0.00,,,0.00,weatherlink.com 1.10,2013-05-19 07:52:00,
2013-05-19 01:07:00,56.8,45.0,30.05,SSW,200,1.0,2.0,64,0.00,,,0.00,weatherlink.com 1.10,2013-05-19 08:07:00,
2013-05-19 01:22:00,57.1,44.0,30.06,ESE,122,0.0,1.0,63,0.00,,,0.00,weatherlink.com 1.10,2013-05-19 08:22:00,
2013-05-19 01:37:00,56.8,45.0,30.06,ESE,120,0.0,1.0,64,0.00,,,0.00,weatherlink.com 1.10,2013-05-19 08:37:00,
2013-05-19 01:52:00,56.8,45.0,30.05,NE,41,0.0,3.0,64,0.00,,,0.00,weatherlink.com 1.10,2013-05-19 08:52:00,
2013-05-19 02:07:00,57.4,45.0,30.06,NNE,33,0.0,2.0,63,0.00,,,0.00,weatherlink.com 1.10,2013-05-19 09:07:00,
2013-05-19 02:22:00,57.0,45.0,30.05,SSE,165,0.0,3.0,64,0.00,,,0.00,weatherlink.com 1.10,2013-05-19 09:22:00,
2013-05-19 02:37:00,56.7,45.0,30.05,ENE,75,0.0,1.0,64,0.00,,,0.00,weatherlink.com 1.10,2013-05-19 09:37:00,
2013-05-19 02:52:00,56.0,44.0,30.05,North,6,2.0,3.0,65,0.00,,,0.00,weatherlink.com 1.10,2013-05-19 09:52:00,
2013-05-19 03:07:00,57.0,44.0,30.05,ENE,75,1.0,3.0,63,0.00,,,0.00,weatherlink.com 1.10,2013-05-19 10:07:00,
2013-05-19 03:22:00,57.1,44.0,30.06,NE,44,0.0,5.0,62,0.00,,,0.00,weatherlink.com 1.10,2013-05-19 10:22:00,
2013-05-19 03:37:00,56.3,44.0,30.06,NNE,15,0.0,2.0,63,0.00,,,0.00,weatherlink.com 1.10,2013-05-19 10:37:00,
2013-05-19 03:52:00,55.3,44.0,30.06,North,358,0.0,1.0,66,0.00,,,0.00,weatherlink.com 1.10,2013-05-19 10:52:00,
2013-05-19 04:07:00,53.7,43.0,30.06,North,10,0.0,0.0,68,0.00,,,0.00,weatherlink.com 1.10,2013-05-19 11:07:00,
2013-05-19 04:23:00,51.8,43.0,30.06,North,10,0.0,0.0,72,0.00,,,0.00,weatherlink.com 1.10,2013-05-19 11:23:00,
2013-05-19 04:38:00,50.1,43.0,30.06,North,10,0.0,0.0,77,0.00,,,0.00,weatherlink.com 1.10,2013-05-19 11:38:00,
2013-05-19 04:53:00,48.5,42.0,30.07,North,10,0.0,0.0,79,0.00,,,0.00,weatherlink.com 1.10,2013-05-19 11:53:00,
2013-05-19 05:08:00,47.5,42.0,30.06,North,10,0.0,0.0,82,0.00,,,0.00,weatherlink.com 1.10,2013-05-19 12:08:00,
2013-05-19 05:23:00,47.1,42.0,30.06,North,10,0.0,0.0,83,0.00,,,0.00,weatherlink.com 1.10,2013-05-19 12:23:00,
2013-05-19 05:38:00,47.4,43.0,30.07,North,10,0.0,1.0,84,0.00,,,0.00,weatherlink.com 1.10,2013-05-19 12:38:00,
2013-05-19 05:53:00,47.3,43.0,30.07,North,10,0.0,1.0,85,0.00,,,0.00,weatherlink.com 1.10,2013-05-19 12:53:00,
2013-05-19 06:08:00,48.1,44.0,30.07,NE,53,0.0,2.0,84,0.00,,,0.00,weatherlink.com 1.10,2013-05-19 13:08:00,
2013-05-19 06:23:00,52.2,45.0,30.07,North,353,0.0,2.0,77,0.00,,,0.00,weatherlink.com 1.10,2013-05-19 13:23:00,
2013-05-19 06:38:00,52.5,45.0,30.07,SE,136,0.0,1.0,77,0.00,,,0.00,weatherlink.com 1.10,2013-05-19 13:38:00,
2013-05-19 06:53:00,54.9,46.0,30.07,ENE,62,0.0,2.0,71,0.00,,,0.00,weatherlink.com 1.10,2013-05-19 13:53:00,
2013-05-19 07:08:00,56.4,46.0,30.07,East,96,0.0,1.0,68,0.00,,,0.00,weatherlink.com 1.10,2013-05-19 14:08:00,
2013-05-19 07:23:00,57.5,46.0,30.07,NNE,31,0.0,1.0,65,0.00,,,0.00,weatherlink.com 1.10,2013-05-19 14:23:00,
2013-05-19 07:38:00,59.0,46.0,30.08,NE,34,2.0,2.0,62,0.00,,,0.00,weatherlink.com 1.10,2013-05-19 14:38:00,
2013-05-19 07:53:00,60.4,45.0,30.08,East,80,0.0,3.0,58,0.00,,,0.00,weatherlink.com 1.10,2013-05-19 14:53:00,
2013-05-19 08:08:00,62.4,45.0,30.08,NE,55,2.0,2.0,53,0.00,,,0.00,weatherlink.com 1.10,2013-05-19 15:08:00,
2013-05-19 08:23:00,65.6,46.0,30.08,NE,51,1.0,3.0,49,0.00,,,0.00,weatherlink.com 1.10,2013-05-19 15:23:00,
2013-05-19 08:38:00,68.3,45.0,30.08,NNE,19,1.0,4.0,44,0.00,,,0.00,weatherlink.com 1.10,2013-05-19 15:38:00,
2013-05-19 08:53:00,69.5,46.0,30.08,SSE,147,1.0,3.0,43,0.00,,,0.00,weatherlink.com 1.10,2013-05-19 15:53:00,
2013-05-19 09:08:00,70.8,46.0,30.07,East,100,0.0,2.0,41,0.00,,,0.00,weatherlink.com 1.10,2013-05-19 16:08:00,
2013-05-19 09:23:00,73.5,46.0,30.07,NE,44,0.0,2.0,38,0.00,,,0.00,weatherlink.com 1.10,2013-05-19 16:23:00,
2013-05-19 09:38:00,75.0,46.0,30.07,NNW,347,1.0,3.0,36,0.00,,,0.00,weatherlink.com 1.10,2013-05-19 16:38:00,
2013-05-19 09:54:00,74.9,45.0,30.07,SSE,147,0.0,2.0,35,0.00,,,0.00,weatherlink.com 1.10,2013-05-19 16:54:00,
2013-05-19 10:09:00,75.1,46.0,30.07,ENE,67,0.0,5.0,35,0.00,,,0.00,weatherlink.com 1.10,2013-05-19 17:09:00,
2013-05-19 10:24:00,75.9,44.0,30.06,East,83,1.0,4.0,32,0.00,,,0.00,weatherlink.com 1.10,2013-05-19 17:24:00,
2013-05-19 10:39:00,78.7,46.0,30.06,East,98,1.0,3.0,31,0.00,,,0.00,weatherlink.com 1.10,2013-05-19 17:39:00,
2013-05-19 10:54:00,81.2,45.0,30.06,South,179,0.0,2.0,28,0.00,,,0.00,weatherlink.com 1.10,2013-05-19 17:54:00,
2013-05-19 11:09:00,81.9,45.0,30.05,NW,317,1.0,2.0,27,0.00,,,0.00,weatherlink.com 1.10,2013-05-19 18:09:00,
2013-05-19 11:24:00,81.9,44.0,30.05,SSE,147,0.0,2.0,26,0.00,,,0.00,weatherlink.com 1.10,2013-05-19 18:24:00,
2013-05-19 11:39:00,83.4,44.0,30.05,NNE,16,1.0,3.0,25,0.00,,,0.00,weatherlink.com 1.10,2013-05-19 18:39:00,
2013-05-19 11:54:00,82.1,45.0,30.04,NE,38,2.0,10.0,27,0.00,,,0.00,weatherlink.com 1.10,2013-05-19 18:54:00,
2013-05-19 12:09:00,83.0,43.0,30.04,NNE,30,0.0,4.0,24,0.00,,,0.00,weatherlink.com 1.10,2013-05-19 19:09:00,
2013-05-19 12:24:00,84.5,43.0,30.03,ESE,105,1.0,3.0,23,0.00,,,0.00,weatherlink.com 1.10,2013-05-19 19:24:00,
2013-05-19 12:39:00,85.9,36.0,30.02,North,360,3.0,4.0,17,0.00,,,0.00,weatherlink.com 1.10,2013-05-19 19:39:00,
2013-05-19 12:54:00,86.5,40.0,30.02,SW,215,1.0,4.0,19,0.00,,,0.00,weatherlink.com 1.10,2013-05-19 19:54:00,
2013-05-19 13:09:00,86.3,43.0,30.01,NE,50,2.0,5.0,22,0.00,,,0.00,weatherlink.com 1.10,2013-05-19 20:09:00,
2013-05-19 13:24:00,85.3,46.0,30.00,NE,36,0.0,7.0,25,0.00,,,0.00,weatherlink.com 1.10,2013-05-19 20:24:00,
2013-05-19 13:39:00,85.0,47.0,30.00,NNE,23,0.0,5.0,27,0.00,,,0.00,weatherlink.com 1.10,2013-05-19 20:39:00,
2013-05-19 13:54:00,84.7,48.0,30.00,East,79,2.0,8.0,28,0.00,,,0.00,weatherlink.com 1.10,2013-05-19 20:54:00,
2013-05-19 14:09:00,83.5,48.0,30.00,NNE,12,6.0,9.0,29,0.00,,,0.00,weatherlink.com 1.10,2013-05-19 21:09:00,
2013-05-19 14:24:00,82.8,48.0,30.00,NE,34,5.0,8.0,30,0.00,,,0.00,weatherlink.com 1.10,2013-05-19 21:24:00,
2013-05-19 14:39:00,81.6,46.0,29.99,NNE,23,7.0,11.0,29,0.00,,,0.00,weatherlink.com 1.10,2013-05-19 21:39:00,
2013-05-19 14:54:00,81.9,48.0,29.99,NE,46,2.0,7.0,30,0.00,,,0.00,weatherlink.com 1.10,2013-05-19 21:54:00,
2013-05-19 15:09:00,81.4,47.0,29.99,ENE,62,0.0,7.0,30,0.00,,,0.00,weatherlink.com 1.10,2013-05-19 22:09:00,
2013-05-19 15:24:00,79.8,47.0,29.98,NE,40,5.0,9.0,32,0.00,,,0.00,weatherlink.com 1.10,2013-05-19 22:24:00,
2013-05-19 15:39:00,80.1,47.0,29.98,North,359,2.0,8.0,31,0.00,,,0.00,weatherlink.com 1.10,2013-05-19 22:39:00,
2013-05-19 15:54:00,80.5,45.0,29.98,NE,47,3.0,4.0,29,0.00,,,0.00,weatherlink.com 1.10,2013-05-19 22:54:00,
2013-05-19 16:09:00,80.2,46.0,29.97,NE,53,4.0,7.0,30,0.00,,,0.00,weatherlink.com 1.10,2013-05-19 23:09:00,
2013-05-19 16:24:00,80.6,45.0,29.97,East,80,0.0,5.0,28,0.00,,,0.00,weatherlink.com 1.10,2013-05-19 23:24:00,
2013-05-19 16:39:00,79.5,45.0,29.96,ENE,67,1.0,7.0,29,0.00,,,0.00,weatherlink.com 1.10,2013-05-19 23:39:00,
2013-05-19 16:54:00,79.7,44.0,29.95,SE,131,2.0,7.0,28,0.00,,,0.00,weatherlink.com 1.10,2013-05-19 23:54:00,
2013-05-19 17:09:00,79.6,46.0,29.95,East,96,3.0,6.0,30,0.00,,,0.00,weatherlink.com 1.10,2013-05-20 00:09:00,
2013-05-19 17:25:00,79.2,45.0,29.95,West,269,1.0,6.0,30,0.00,,,0.00,weatherlink.com 1.10,2013-05-20 00:25:00,
2013-05-19 17:40:00,78.5,46.0,29.95,NNE,23,1.0,6.0,32,0.00,,,0.00,weatherlink.com 1.10,2013-05-20 00:40:00,
2013-05-19 17:55:00,77.3,46.0,29.94,NNE,16,2.0,6.0,33,0.00,,,0.00,weatherlink.com 1.10,2013-05-20 00:55:00,
2013-05-19 18:10:00,76.2,46.0,29.94,East,87,3.0,7.0,34,0.00,,,0.00,weatherlink.com 1.10,2013-05-20 01:10:00,
2013-05-19 18:25:00,75.3,45.0,29.94,NE,40,1.0,6.0,34,0.00,,,0.00,weatherlink.com 1.10,2013-05-20 01:25:00,
2013-05-19 18:40:00,73.7,44.0,29.93,ESE,105,0.0,3.0,35,0.00,,,0.00,weatherlink.com 1.10,2013-05-20 01:40:00,
2013-05-19 18:55:00,72.7,44.0,29.93,North,11,0.0,3.0,36,0.00,,,0.00,weatherlink.com 1.10,2013-05-20 01:55:00,
2013-05-19 19:10:00,71.6,45.0,29.94,ESE,102,0.0,1.0,39,0.00,,,0.00,weatherlink.com 1.10,2013-05-20 02:10:00,
2013-05-19 19:25:00,70.4,45.0,29.94,NNW,345,0.0,2.0,41,0.00,,,0.00,weatherlink.com 1.10,2013-05-20 02:25:00,
2013-05-19 19:40:00,69.0,45.0,29.94,ESE,106,0.0,5.0,42,0.00,,,0.00,weatherlink.com 1.10,2013-05-20 02:40:00,
2013-05-19 19:55:00,67.7,45.0,29.93,East,85,0.0,5.0,44,0.00,,,0.00,weatherlink.com 1.10,2013-05-20 02:55:00,
2013-05-19 20:10:00,66.3,44.0,29.94,NE,49,0.0,3.0,45,0.00,,,0.00,weatherlink.com 1.10,2013-05-20 03:10:00,
2013-05-19 20:25:00,64.4,44.0,29.93,West,269,0.0,0.0,48,0.00,,,0.00,weatherlink.com 1.10,2013-05-20 03:25:00,
2013-05-19 20:40:00,61.9,43.0,29.94,West,269,0.0,0.0,51,0.00,,,0.00,weatherlink.com 1.10,2013-05-20 03:40:00,
2013-05-19 20:55:00,60.2,43.0,29.94,West,269,0.0,0.0,54,0.00,,,0.00,weatherlink.com 1.10,2013-05-20 03:55:00,
2013-05-19 21:10:00,59.4,43.0,29.94,West,269,0.0,0.0,56,0.00,,,0.00,weatherlink.com 1.10,2013-05-20 04:10:00,
2013-05-19 21:25:00,58.4,44.0,29.94,West,269,0.0,0.0,59,0.00,,,0.00,weatherlink.com 1.10,2013-05-20 04:25:00,
2013-05-19 21:40:00,57.6,45.0,29.95,West,269,0.0,0.0,63,0.00,,,0.00,weatherlink.com 1.10,2013-05-20 04:40:00,
2013-05-19 21:55:00,56.9,45.0,29.95,West,269,0.0,0.0,65,0.00,,,0.00,weatherlink.com 1.10,2013-05-20 04:55:00,
2013-05-19 22:10:00,56.0,46.0,29.95,West,269,0.0,0.0,69,0.00,,,0.00,weatherlink.com 1.10,2013-05-20 05:10:00,
2013-05-19 22:25:00,55.4,47.0,29.95,West,269,0.0,0.0,74,0.00,,,0.00,weatherlink.com 1.10,2013-05-20 05:25:00,
2013-05-19 22:40:00,54.3,47.0,29.96,West,269,0.0,0.0,76,0.00,,,0.00,weatherlink.com 1.10,2013-05-20 05:40:00,
2013-05-19 22:55:00,53.3,47.0,29.96,West,269,0.0,0.0,79,0.00,,,0.00,weatherlink.com 1.10,2013-05-20 05:55:00,
2013-05-19 23:10:00,52.6,47.0,29.96,West,269,0.0,0.0,81,0.00,,,0.00,weatherlink.com 1.10,2013-05-20 06:10:00,
2013-05-19 23:25:00,52.0,47.0,29.95,West,269,0.0,0.0,83,0.00,,,0.00,weatherlink.com 1.10,2013-05-20 06:25:00,
2013-05-19 23:40:00,51.4,46.0,29.95,West,269,0.0,0.0,83,0.00,,,0.00,weatherlink.com 1.10,2013-05-20 06:40:00,
2013-05-19 23:55:00,50.8,46.0,29.95,West,269,0.0,0.0,84,0.00,,,0.00,weatherlink.com 1.10,2013-05-20 06:55:00,